sensor_id;sensor_type;location;lat;lon;timestamp;pressure;altitude;pressure_sealevel;temperature;humidity
11712;BME280;5912;51.034;6.984;2023-04-05T00:00:30;56656.81;;;-142.13;57.43
11712;BME280;5912;51.034;6.984;2023-04-05T00:02:59;56668.84;;;-142.13;57.62
11712;BME280;5912;51.034;6.984;2023-04-05T00:05:25;56640.78;;;-142.13;58.16
11712;BME280;5912;51.034;6.984;2023-04-05T00:07:59;56664.84;;;-142.13;58.26
11712;BME280;5912;51.034;6.984;2023-04-05T00:10:29;56688.88;;;-142.13;58.36
11712;BME280;5912;51.034;6.984;2023-04-05T00:12:56;56682.88;;;-142.13;58.07
11712;BME280;5912;51.034;6.984;2023-04-05T00:15:21;56674.84;;;-142.13;58.72
11712;BME280;5912;51.034;6.984;2023-04-05T00:17:47;56660.81;;;-142.13;58.56
11712;BME280;5912;51.034;6.984;2023-04-05T00:20:12;56670.84;;;-142.13;58.70
11712;BME280;5912;51.034;6.984;2023-04-05T00:22:40;56696.88;;;-142.13;59.13
11712;BME280;5912;51.034;6.984;2023-04-05T00:25:06;56656.81;;;-142.13;59.36
11712;BME280;5912;51.034;6.984;2023-04-05T00:27:31;56616.75;;;-142.13;59.45
11712;BME280;5912;51.034;6.984;2023-04-05T00:29:56;56646.81;;;-142.13;59.30
11712;BME280;5912;51.034;6.984;2023-04-05T00:32:22;56668.84;;;-142.13;60.06
11712;BME280;5912;51.034;6.984;2023-04-05T00:34:48;56672.84;;;-142.13;59.74
11712;BME280;5912;51.034;6.984;2023-04-05T00:37:13;56668.84;;;-142.13;59.46
11712;BME280;5912;51.034;6.984;2023-04-05T00:39:39;56640.78;;;-142.13;59.51
11712;BME280;5912;51.034;6.984;2023-04-05T00:42:04;56694.88;;;-142.13;59.77
11712;BME280;5912;51.034;6.984;2023-04-05T00:44:30;56662.81;;;-142.13;59.12
11712;BME280;5912;51.034;6.984;2023-04-05T00:47:03;56680.84;;;-142.13;59.15
11712;BME280;5912;51.034;6.984;2023-04-05T00:49:30;56664.84;;;-142.13;59.44
11712;BME280;5912;51.034;6.984;2023-04-05T00:51:56;56652.81;;;-142.13;59.80
11712;BME280;5912;51.034;6.984;2023-04-05T00:54:26;56646.81;;;-142.13;59.52
11712;BME280;5912;51.034;6.984;2023-04-05T00:56:55;56658.81;;;-142.13;59.24
11712;BME280;5912;51.034;6.984;2023-04-05T00:59:20;56652.81;;;-142.13;59.05
11712;BME280;5912;51.034;6.984;2023-04-05T01:01:49;56650.81;;;-142.13;59.20
11712;BME280;5912;51.034;6.984;2023-04-05T01:04:48;56662.81;;;-142.13;58.91
11712;BME280;5912;51.034;6.984;2023-04-05T01:07:24;56662.81;;;-142.13;59.07
11712;BME280;5912;51.034;6.984;2023-04-05T01:09:57;56626.78;;;-142.13;59.28
11712;BME280;5912;51.034;6.984;2023-04-05T01:12:26;56654.81;;;-142.13;59.17
11712;BME280;5912;51.034;6.984;2023-04-05T01:14:53;56656.81;;;-142.13;59.36
11712;BME280;5912;51.034;6.984;2023-04-05T01:19:56;56668.84;;;-142.13;58.90
11712;BME280;5912;51.034;6.984;2023-04-05T01:25:21;56616.75;;;-142.13;58.36
11712;BME280;5912;51.034;6.984;2023-04-05T01:30:29;56636.78;;;-142.13;57.08
11712;BME280;5912;51.034;6.984;2023-04-05T01:35:51;56648.81;;;-142.13;56.46
11712;BME280;5912;51.034;6.984;2023-04-05T01:38:18;56630.78;;;-142.13;56.01
11712;BME280;5912;51.034;6.984;2023-04-05T01:40:47;56622.75;;;-142.13;55.42
11712;BME280;5912;51.034;6.984;2023-04-05T01:43:14;56592.72;;;-142.13;55.08
11712;BME280;5912;51.034;6.984;2023-04-05T01:45:40;56612.75;;;-142.13;54.96
11712;BME280;5912;51.034;6.984;2023-04-05T01:48:06;56620.75;;;-142.13;55.04
11712;BME280;5912;51.034;6.984;2023-04-05T01:50:31;56642.78;;;-142.13;54.11
11712;BME280;5912;51.034;6.984;2023-04-05T01:52:57;56614.75;;;-142.13;53.71
11712;BME280;5912;51.034;6.984;2023-04-05T01:55:22;56606.75;;;-142.13;53.46
11712;BME280;5912;51.034;6.984;2023-04-05T01:57:47;56652.81;;;-142.13;53.39
11712;BME280;5912;51.034;6.984;2023-04-05T02:00:12;56604.72;;;-142.13;53.18
11712;BME280;5912;51.034;6.984;2023-04-05T02:02:38;56654.81;;;-142.13;53.54
11712;BME280;5912;51.034;6.984;2023-04-05T02:05:03;56592.72;;;-142.13;53.34
11712;BME280;5912;51.034;6.984;2023-04-05T02:07:29;56626.78;;;-142.13;53.43
11712;BME280;5912;51.034;6.984;2023-04-05T02:09:54;56584.69;;;-142.13;53.49
11712;BME280;5912;51.034;6.984;2023-04-05T02:12:20;56628.78;;;-142.13;53.49
11712;BME280;5912;51.034;6.984;2023-04-05T02:14:45;56642.78;;;-142.13;52.95
11712;BME280;5912;51.034;6.984;2023-04-05T02:17:10;56628.78;;;-142.13;53.09
11712;BME280;5912;51.034;6.984;2023-04-05T02:19:36;56634.78;;;-142.13;53.00
11712;BME280;5912;51.034;6.984;2023-04-05T02:22:06;56628.78;;;-142.13;53.19
11712;BME280;5912;51.034;6.984;2023-04-05T02:24:31;56652.81;;;-142.13;53.37
11712;BME280;5912;51.034;6.984;2023-04-05T02:26:57;56632.78;;;-142.13;53.25
11712;BME280;5912;51.034;6.984;2023-04-05T02:29:22;56622.75;;;-142.13;53.25
11712;BME280;5912;51.034;6.984;2023-04-05T02:31:48;56642.78;;;-142.13;53.14
11712;BME280;5912;51.034;6.984;2023-04-05T02:34:13;56648.81;;;-142.13;52.88
11712;BME280;5912;51.034;6.984;2023-04-05T02:36:38;56620.75;;;-142.13;52.83
11712;BME280;5912;51.034;6.984;2023-04-05T02:42:27;56652.81;;;-142.13;52.63
11712;BME280;5912;51.034;6.984;2023-04-05T02:44:52;56618.75;;;-142.13;52.20
11712;BME280;5912;51.034;6.984;2023-04-05T02:47:18;56628.78;;;-142.13;53.15
11712;BME280;5912;51.034;6.984;2023-04-05T02:49:47;56638.78;;;-142.13;53.02
11712;BME280;5912;51.034;6.984;2023-04-05T02:52:13;56648.81;;;-142.13;53.25
11712;BME280;5912;51.034;6.984;2023-04-05T02:54:38;56636.78;;;-142.13;53.25
11712;BME280;5912;51.034;6.984;2023-04-05T02:57:03;56644.81;;;-142.13;53.64
11712;BME280;5912;51.034;6.984;2023-04-05T02:59:29;56648.81;;;-142.13;54.39
11712;BME280;5912;51.034;6.984;2023-04-05T03:01:54;56642.78;;;-142.13;54.67
11712;BME280;5912;51.034;6.984;2023-04-05T03:04:19;56644.81;;;-142.13;54.82
11712;BME280;5912;51.034;6.984;2023-04-05T03:06:45;56664.84;;;-142.13;55.12
11712;BME280;5912;51.034;6.984;2023-04-05T03:09:13;56644.81;;;-142.13;55.85
11712;BME280;5912;51.034;6.984;2023-04-05T03:11:38;56644.81;;;-142.13;55.55
11712;BME280;5912;51.034;6.984;2023-04-05T03:14:04;56636.78;;;-142.13;55.84
11712;BME280;5912;51.034;6.984;2023-04-05T03:16:29;56636.78;;;-142.13;55.72
11712;BME280;5912;51.034;6.984;2023-04-05T03:18:54;56646.81;;;-142.13;56.05
11712;BME280;5912;51.034;6.984;2023-04-05T03:21:21;56652.81;;;-142.13;55.91
11712;BME280;5912;51.034;6.984;2023-04-05T03:23:46;56652.81;;;-142.13;55.80
11712;BME280;5912;51.034;6.984;2023-04-05T03:26:12;56734.94;;;-142.13;55.67
11712;BME280;5912;51.034;6.984;2023-04-05T03:28:38;56644.81;;;-142.13;55.64
11712;BME280;5912;51.034;6.984;2023-04-05T03:31:09;56652.81;;;-142.13;55.72
11712;BME280;5912;51.034;6.984;2023-04-05T03:33:35;56668.84;;;-142.13;56.03
11712;BME280;5912;51.034;6.984;2023-04-05T03:36:00;56658.81;;;-142.13;56.06
11712;BME280;5912;51.034;6.984;2023-04-05T03:38:26;56632.78;;;-142.13;55.91
11712;BME280;5912;51.034;6.984;2023-04-05T03:40:52;56632.78;;;-142.13;55.20
11712;BME280;5912;51.034;6.984;2023-04-05T03:43:18;56628.78;;;-142.13;55.67
11712;BME280;5912;51.034;6.984;2023-04-05T03:45:43;56632.78;;;-142.13;54.82
11712;BME280;5912;51.034;6.984;2023-04-05T03:48:08;56664.84;;;-142.13;55.16
11712;BME280;5912;51.034;6.984;2023-04-05T03:50:34;56644.81;;;-142.13;54.84
11712;BME280;5912;51.034;6.984;2023-04-05T03:52:59;56624.75;;;-142.13;55.11
11712;BME280;5912;51.034;6.984;2023-04-05T03:55:24;56672.84;;;-142.13;54.89
11712;BME280;5912;51.034;6.984;2023-04-05T03:57:51;56598.72;;;-142.13;55.19
11712;BME280;5912;51.034;6.984;2023-04-05T04:00:16;56668.84;;;-142.13;55.57
11712;BME280;5912;51.034;6.984;2023-04-05T04:02:43;56658.81;;;-142.13;55.71
11712;BME280;5912;51.034;6.984;2023-04-05T04:05:10;56636.78;;;-142.13;56.33
11712;BME280;5912;51.034;6.984;2023-04-05T04:07:36;56646.81;;;-142.13;55.87
11712;BME280;5912;51.034;6.984;2023-04-05T04:10:03;56660.81;;;-142.13;56.85
11712;BME280;5912;51.034;6.984;2023-04-05T04:12:29;56654.81;;;-142.13;56.87
11712;BME280;5912;51.034;6.984;2023-04-05T04:14:54;56634.78;;;-142.13;56.15
11712;BME280;5912;51.034;6.984;2023-04-05T04:19:52;56652.81;;;-142.13;56.71
11712;BME280;5912;51.034;6.984;2023-04-05T04:22:18;56688.88;;;-142.13;56.97
11712;BME280;5912;51.034;6.984;2023-04-05T04:24:45;56624.75;;;-142.13;56.42
11712;BME280;5912;51.034;6.984;2023-04-05T04:27:10;56634.78;;;-142.13;56.69
11712;BME280;5912;51.034;6.984;2023-04-05T04:29:36;56646.81;;;-142.13;56.58
11712;BME280;5912;51.034;6.984;2023-04-05T04:32:03;56636.78;;;-142.13;56.42
11712;BME280;5912;51.034;6.984;2023-04-05T04:34:31;56662.81;;;-142.13;56.94
11712;BME280;5912;51.034;6.984;2023-04-05T04:36:58;56646.81;;;-142.13;57.07
11712;BME280;5912;51.034;6.984;2023-04-05T04:39:27;56664.84;;;-142.13;57.46
11712;BME280;5912;51.034;6.984;2023-04-05T04:41:55;56676.84;;;-142.13;56.74
11712;BME280;5912;51.034;6.984;2023-04-05T04:44:21;56672.84;;;-142.13;57.22
11712;BME280;5912;51.034;6.984;2023-04-05T04:46:52;56664.84;;;-142.13;56.48
11712;BME280;5912;51.034;6.984;2023-04-05T04:49:19;56684.88;;;-142.13;56.95
11712;BME280;5912;51.034;6.984;2023-04-05T04:51:45;56666.84;;;-142.13;56.56
11712;BME280;5912;51.034;6.984;2023-04-05T04:54:11;56616.75;;;-142.13;56.63
11712;BME280;5912;51.034;6.984;2023-04-05T04:56:37;56624.75;;;-142.13;55.96
11712;BME280;5912;51.034;6.984;2023-04-05T04:59:02;56668.84;;;-142.13;54.84
11712;BME280;5912;51.034;6.984;2023-04-05T05:01:27;56666.84;;;-142.13;54.58
11712;BME280;5912;51.034;6.984;2023-04-05T05:03:53;56676.84;;;-142.13;54.31
11712;BME280;5912;51.034;6.984;2023-04-05T05:06:18;56666.84;;;-142.13;54.56
11712;BME280;5912;51.034;6.984;2023-04-05T05:08:44;56634.78;;;-142.13;54.10
11712;BME280;5912;51.034;6.984;2023-04-05T05:11:11;56630.78;;;-142.13;53.61
11712;BME280;5912;51.034;6.984;2023-04-05T05:13:36;56648.81;;;-142.13;53.40
11712;BME280;5912;51.034;6.984;2023-04-05T05:16:02;56646.81;;;-142.13;52.80
